createdAt,value
2023-01-05T00:02:24.165Z,22.19
2023-01-05T00:04:51.106Z,22.11
2023-01-05T00:07:17.532Z,22.08
2023-01-05T00:09:43.922Z,22.10
2023-01-05T00:12:10.302Z,22.13
2023-01-05T00:14:36.687Z,22.08
2023-01-05T00:17:03.053Z,22.07
2023-01-05T00:19:29.415Z,22.02
2023-01-05T00:21:55.907Z,22.06
2023-01-05T00:24:22.260Z,22.08
2023-01-05T00:26:48.684Z,22.02
2023-01-05T00:29:15.106Z,21.99
2023-01-05T00:31:41.551Z,21.99
2023-01-05T00:34:08.015Z,22.01
2023-01-05T00:36:34.417Z,21.95
2023-01-05T00:39:00.811Z,22.01
2023-01-05T00:41:27.211Z,21.94
2023-01-05T00:43:53.577Z,22.00
2023-01-05T00:46:19.984Z,22.07
2023-01-05T00:48:46.411Z,21.96
2023-01-05T00:51:12.768Z,22.03
2023-01-05T00:53:39.150Z,21.98
2023-01-05T00:56:05.521Z,21.97
2023-01-05T00:58:31.898Z,22.07
2023-01-05T01:00:58.309Z,22.02
2023-01-05T01:03:24.828Z,22.02
2023-01-05T01:05:51.226Z,22.07
2023-01-05T01:08:17.631Z,22.01
2023-01-05T01:10:44.055Z,22.12
2023-01-05T01:13:10.465Z,22.13
2023-01-05T01:15:36.897Z,22.10
2023-01-05T01:18:03.265Z,22.06
2023-01-05T01:20:29.626Z,22.11
2023-01-05T01:22:56.039Z,22.12
2023-01-05T01:25:22.404Z,22.12
2023-01-05T01:27:48.791Z,22.16
2023-01-05T01:30:15.154Z,22.14
2023-01-05T01:32:41.531Z,22.09
2023-01-05T01:35:07.939Z,22.14
2023-01-05T01:37:34.347Z,22.10
2023-01-05T01:40:00.717Z,22.08
2023-01-05T01:42:27.211Z,22.06
2023-01-05T01:44:53.602Z,22.07
2023-01-05T01:47:19.980Z,22.08
2023-01-05T01:49:46.401Z,21.97
2023-01-05T01:52:12.765Z,21.97
2023-01-05T01:54:39.242Z,22.01
2023-01-05T01:57:05.637Z,21.97
2023-01-05T01:59:31.999Z,21.95
2023-01-05T02:01:58.630Z,21.95
2023-01-05T02:04:25.209Z,21.95
2023-01-05T02:06:51.667Z,21.97
2023-01-05T02:09:18.062Z,21.97
2023-01-05T02:11:44.439Z,21.94
2023-01-05T02:14:10.860Z,21.97
2023-01-05T02:16:37.361Z,21.98
2023-01-05T02:19:03.790Z,22.05
2023-01-05T02:21:30.176Z,21.98
2023-01-05T02:23:56.600Z,21.98
2023-01-05T02:26:22.943Z,21.96
2023-01-05T02:28:49.332Z,21.94
2023-01-05T02:31:15.753Z,21.92
2023-01-05T02:33:42.151Z,21.98
2023-01-05T02:36:08.510Z,22.00
2023-01-05T02:38:34.867Z,22.04
2023-01-05T02:41:01.250Z,22.00
2023-01-05T02:43:27.626Z,22.08
2023-01-05T02:45:54.053Z,22.05
2023-01-05T02:48:20.524Z,22.09
2023-01-05T02:50:46.955Z,22.08
2023-01-05T02:53:13.344Z,22.11
2023-01-05T02:55:39.728Z,22.10
2023-01-05T02:58:06.112Z,22.09
2023-01-05T03:00:32.469Z,22.05
2023-01-05T03:02:58.966Z,22.02
2023-01-05T03:05:25.593Z,21.95
2023-01-05T03:07:51.946Z,22.03
2023-01-05T03:10:18.303Z,22.02
2023-01-05T03:12:44.711Z,22.00
2023-01-05T03:15:11.089Z,21.95
2023-01-05T03:17:37.467Z,21.99
2023-01-05T03:20:03.836Z,21.99
2023-01-05T03:22:30.210Z,21.93
2023-01-05T03:24:56.571Z,21.95
2023-01-05T03:27:22.936Z,21.96
2023-01-05T03:29:49.329Z,21.93
2023-01-05T03:32:15.706Z,22.07
2023-01-05T03:34:42.174Z,22.02
2023-01-05T03:37:08.551Z,21.97
2023-01-05T03:39:34.942Z,21.95
2023-01-05T03:42:01.320Z,21.97
2023-01-05T03:44:27.708Z,22.04
2023-01-05T03:46:54.075Z,22.11
2023-01-05T03:49:20.458Z,22.10
2023-01-05T03:51:46.860Z,22.14
2023-01-05T03:54:13.233Z,22.08
2023-01-05T03:56:39.600Z,22.02
2023-01-05T03:59:06.006Z,22.09
2023-01-05T04:01:32.481Z,22.08
2023-01-05T04:03:59.003Z,22.10
2023-01-05T04:06:25.429Z,22.11
2023-01-05T04:08:51.804Z,22.05
2023-01-05T04:11:18.177Z,22.06
2023-01-05T04:13:44.569Z,22.06
2023-01-05T04:16:11.064Z,22.07
2023-01-05T04:18:37.492Z,22.04
2023-01-05T04:21:03.897Z,22.05
2023-01-05T04:23:30.283Z,21.96
2023-01-05T04:25:56.652Z,22.05
2023-01-05T04:28:23.010Z,21.94
2023-01-05T04:30:49.412Z,21.98
2023-01-05T04:33:15.783Z,22.01
2023-01-05T04:35:42.149Z,22.00
2023-01-05T04:38:08.532Z,22.02
2023-01-05T04:40:34.956Z,21.96
2023-01-05T04:43:01.351Z,21.99
2023-01-05T04:45:27.698Z,21.93
2023-01-05T04:47:54.065Z,22.01
2023-01-05T04:50:20.551Z,22.02
2023-01-05T04:52:46.919Z,21.96
2023-01-05T04:55:13.287Z,22.08
2023-01-05T04:57:39.639Z,22.09
2023-01-05T05:00:05.995Z,22.04
2023-01-05T05:02:32.614Z,22.09
2023-01-05T05:04:59.039Z,22.07
2023-01-05T05:07:25.394Z,22.04
2023-01-05T05:09:51.762Z,22.04
2023-01-05T05:12:18.126Z,22.04
2023-01-05T05:14:44.504Z,22.05
2023-01-05T05:17:10.840Z,22.09
2023-01-05T05:19:37.227Z,22.05
2023-01-05T05:22:03.582Z,22.10
2023-01-05T05:24:29.967Z,22.03
2023-01-05T05:26:56.326Z,21.99
2023-01-05T05:29:22.694Z,22.02
2023-01-05T05:31:49.209Z,21.98
2023-01-05T05:34:15.621Z,21.98
2023-01-05T05:36:41.968Z,21.98
2023-01-05T05:39:08.422Z,22.00
2023-01-05T05:41:34.796Z,22.05
2023-01-05T05:44:01.181Z,22.02
2023-01-05T05:46:27.606Z,21.97
2023-01-05T05:48:53.986Z,22.03
2023-01-05T05:51:20.342Z,22.08
2023-01-05T05:53:46.724Z,22.03
2023-01-05T05:56:13.074Z,22.03
2023-01-05T05:58:39.440Z,22.01
2023-01-05T06:01:05.876Z,22.05
2023-01-05T06:03:32.322Z,21.96
2023-01-05T06:05:58.758Z,22.03
2023-01-05T06:08:25.132Z,21.98
2023-01-05T06:10:51.518Z,22.04
2023-01-05T06:13:18.032Z,22.03
2023-01-05T06:15:44.435Z,22.04
2023-01-05T06:18:10.800Z,22.00
2023-01-05T06:20:37.162Z,22.03
2023-01-05T06:23:03.524Z,22.03
2023-01-05T06:25:29.925Z,22.03
2023-01-05T06:27:57.400Z,21.96
2023-01-05T06:30:23.757Z,22.03
2023-01-05T06:32:50.130Z,22.03
2023-01-05T06:35:16.508Z,22.02
2023-01-05T06:37:42.947Z,21.99
2023-01-05T06:40:09.316Z,21.98
2023-01-05T06:42:35.673Z,21.95
2023-01-05T06:45:02.050Z,21.99
2023-01-05T06:47:28.439Z,22.00
2023-01-05T06:49:54.827Z,21.97
2023-01-05T06:52:21.207Z,21.97
2023-01-05T06:54:47.597Z,21.98
2023-01-05T06:57:14.007Z,21.98
2023-01-05T06:59:40.364Z,21.95
2023-01-05T07:02:06.791Z,22.01
2023-01-05T07:04:33.299Z,21.98
2023-01-05T07:06:59.680Z,21.97
2023-01-05T07:09:26.043Z,22.02
2023-01-05T07:11:52.395Z,22.05
2023-01-05T07:14:18.759Z,22.04
2023-01-05T07:16:45.146Z,22.06
2023-01-05T07:19:11.530Z,22.11
2023-01-05T07:21:37.882Z,22.14
2023-01-05T07:24:04.249Z,21.94
2023-01-05T07:26:30.737Z,21.91
2023-01-05T07:28:57.099Z,21.98
2023-01-05T07:31:23.496Z,21.93
2023-01-05T07:33:49.888Z,21.98
2023-01-05T07:36:16.263Z,21.91
2023-01-05T07:38:42.639Z,21.89
2023-01-05T07:41:08.998Z,21.93
2023-01-05T07:43:35.352Z,22.02
2023-01-05T07:46:01.784Z,22.04
2023-01-05T07:48:28.186Z,22.05
2023-01-05T07:50:54.555Z,22.04
2023-01-05T07:53:21.049Z,22.02
2023-01-05T07:55:47.437Z,21.98
2023-01-05T07:58:13.833Z,21.98
2023-01-05T08:00:40.234Z,21.96
2023-01-05T08:03:06.596Z,21.96
2023-01-05T08:05:32.951Z,21.97
2023-01-05T08:07:59.346Z,21.93
2023-01-05T08:10:25.805Z,22.03
2023-01-05T08:12:52.244Z,21.95
2023-01-05T08:15:18.755Z,21.96
2023-01-05T08:17:45.131Z,22.06
2023-01-05T08:20:11.492Z,22.07
2023-01-05T08:22:37.966Z,22.09
2023-01-05T08:25:04.352Z,22.04
2023-01-05T08:27:30.731Z,22.01
2023-01-05T08:29:57.115Z,22.00
2023-01-05T08:32:23.459Z,22.02
2023-01-05T08:34:55.269Z,22.02
2023-01-05T08:37:22.020Z,22.01
2023-01-05T08:39:48.416Z,21.99
2023-01-05T08:42:14.825Z,22.07
2023-01-05T08:44:41.273Z,22.04
2023-01-05T08:47:07.679Z,22.07
2023-01-05T08:49:34.087Z,22.09
2023-01-05T08:52:00.527Z,22.11
2023-01-05T08:54:26.914Z,22.10
2023-01-05T08:56:53.382Z,22.04
2023-01-05T08:59:19.740Z,22.09
2023-01-05T09:01:46.330Z,22.13
2023-01-05T09:04:12.890Z,22.08
2023-01-05T09:06:39.270Z,22.11
2023-01-05T09:09:05.664Z,22.15
2023-01-05T09:11:32.030Z,22.15
2023-01-05T09:13:58.456Z,22.22
2023-01-05T09:19:11.179Z,22.35
2023-01-05T09:21:37.542Z,22.43
2023-01-05T09:24:03.910Z,22.40
2023-01-05T09:26:30.322Z,22.30
2023-01-05T09:28:56.994Z,22.40
2023-01-05T09:31:23.414Z,22.53
2023-01-05T09:33:49.841Z,22.34
2023-01-05T09:36:16.237Z,22.45
2023-01-05T09:38:47.031Z,22.59
2023-01-05T09:41:13.681Z,22.52
2023-01-05T09:43:40.071Z,22.39
2023-01-05T09:46:06.503Z,22.33
2023-01-05T09:48:32.985Z,22.38
2023-01-05T09:50:59.358Z,22.38
2023-01-05T09:53:25.739Z,22.33
2023-01-05T09:55:52.140Z,22.28
2023-01-05T09:58:18.538Z,22.26
2023-01-05T10:00:44.919Z,22.23
2023-01-05T10:03:29.303Z,22.25
2023-01-05T10:05:57.747Z,22.24
2023-01-05T10:08:24.245Z,22.24
2023-01-05T10:10:50.688Z,22.27
2023-01-05T10:13:17.049Z,22.25
2023-01-05T10:15:43.547Z,22.25
2023-01-05T10:18:10.016Z,22.31
2023-01-05T10:20:36.398Z,22.27
2023-01-05T10:23:02.766Z,22.31
2023-01-05T10:25:29.147Z,22.28
2023-01-05T10:27:57.060Z,22.40
2023-01-05T10:30:23.550Z,22.36
2023-01-05T10:32:50.906Z,22.49
2023-01-05T10:35:42.011Z,22.48
2023-01-05T10:38:03.795Z,22.46
2023-01-05T10:40:30.197Z,22.45
2023-01-05T10:42:56.588Z,22.46
2023-01-05T10:45:22.942Z,22.41
2023-01-05T10:47:49.398Z,22.41
2023-01-05T10:50:15.822Z,22.47
2023-01-05T10:52:42.171Z,22.47
2023-01-05T10:55:08.535Z,22.52
2023-01-05T10:57:36.643Z,22.53
2023-01-05T11:00:03.521Z,22.56
2023-01-05T11:02:30.149Z,22.64
2023-01-05T11:04:56.689Z,22.46
2023-01-05T11:07:23.109Z,22.53
2023-01-05T11:09:49.501Z,22.46
2023-01-05T11:12:15.879Z,22.48
2023-01-05T11:14:42.248Z,22.47
2023-01-05T11:17:08.632Z,22.56
2023-01-05T11:19:34.995Z,22.63
2023-01-05T11:22:02.416Z,22.64
2023-01-05T11:24:29.433Z,22.72
2023-01-05T11:26:55.809Z,22.46
2023-01-05T11:29:22.173Z,22.42
2023-01-05T11:31:48.543Z,22.41
2023-01-05T11:34:14.943Z,22.48
2023-01-05T11:36:41.309Z,22.44
2023-01-05T11:39:07.681Z,22.48
2023-01-05T11:41:34.070Z,22.46
2023-01-05T11:44:00.468Z,22.41
2023-01-05T11:46:26.922Z,22.47
2023-01-05T11:48:53.357Z,22.41
2023-01-05T11:51:23.011Z,22.41
2023-01-05T11:53:53.900Z,22.34
2023-01-05T11:56:20.285Z,22.42
2023-01-05T11:58:46.680Z,22.44
2023-01-05T12:01:13.153Z,22.34
2023-01-05T12:03:39.541Z,22.35
2023-01-05T12:06:05.930Z,22.29
2023-01-05T12:08:32.344Z,22.26
2023-01-05T12:10:58.721Z,22.35
2023-01-05T12:13:25.084Z,22.31
2023-01-05T12:15:51.470Z,22.32
2023-01-05T12:18:17.958Z,22.31
2023-01-05T12:20:44.342Z,22.47
2023-01-05T12:23:10.708Z,22.43
2023-01-05T12:25:37.219Z,22.42
2023-01-05T12:28:05.526Z,22.41
2023-01-05T12:36:04.650Z,22.44
2023-01-05T12:38:31.021Z,22.35
2023-01-05T12:40:57.380Z,22.29
2023-01-05T12:43:23.751Z,22.31
2023-01-05T12:45:50.109Z,22.44
2023-01-05T12:48:16.496Z,22.44
2023-01-05T12:50:42.909Z,22.45
2023-01-05T12:53:09.273Z,22.37
2023-01-05T12:55:35.655Z,22.50
2023-01-05T12:58:02.016Z,22.39
2023-01-05T13:00:28.478Z,22.38
2023-01-05T13:02:54.924Z,22.52
2023-01-05T13:05:21.322Z,22.45
2023-01-05T13:07:47.700Z,22.54
2023-01-05T13:10:14.176Z,22.43
2023-01-05T13:12:40.529Z,22.38
2023-01-05T13:15:06.858Z,22.38
2023-01-05T13:17:33.236Z,22.48
2023-01-05T13:19:59.599Z,22.43
2023-01-05T13:22:26.015Z,22.41
2023-01-05T13:24:52.429Z,22.37
2023-01-05T13:27:18.832Z,22.43
2023-01-05T13:29:45.210Z,22.41
2023-01-05T13:32:11.584Z,22.46
2023-01-05T13:34:38.102Z,22.44
2023-01-05T13:37:04.464Z,22.47
2023-01-05T13:39:30.862Z,22.44
2023-01-05T13:41:57.415Z,22.47
2023-01-05T13:44:23.823Z,22.40
2023-01-05T13:46:50.220Z,22.38
2023-01-05T13:49:16.620Z,22.38
2023-01-05T13:51:42.975Z,22.32
2023-01-05T13:54:11.975Z,22.32
2023-01-05T13:56:39.933Z,22.25
2023-01-05T13:59:12.052Z,22.44
2023-01-05T14:01:45.843Z,22.31
2023-01-05T14:04:12.275Z,22.38
2023-01-05T14:06:38.627Z,22.32
2023-01-05T14:11:36.252Z,22.33
2023-01-05T14:14:04.737Z,22.27
2023-01-05T14:16:31.206Z,22.22
2023-01-05T14:18:57.715Z,22.25
2023-01-05T14:21:24.052Z,22.32
2023-01-05T14:23:50.403Z,22.25
2023-01-05T14:26:16.833Z,22.38
2023-01-05T14:28:43.238Z,22.26
2023-01-05T14:31:09.616Z,22.27
2023-01-05T14:33:36.069Z,22.23
2023-01-05T14:36:02.508Z,22.29
2023-01-05T14:38:28.923Z,22.24
2023-01-05T14:40:55.335Z,22.22
2023-01-05T14:43:21.708Z,22.19
2023-01-05T14:45:48.187Z,22.26
2023-01-05T14:48:14.647Z,22.21
2023-01-05T14:50:41.068Z,22.25
2023-01-05T14:53:07.468Z,22.24
2023-01-05T14:55:38.775Z,22.20
2023-01-05T14:58:05.837Z,22.33
2023-01-05T15:00:32.243Z,22.25
2023-01-05T15:02:58.790Z,22.25
2023-01-05T15:05:25.209Z,22.25
2023-01-05T15:07:51.834Z,22.23
2023-01-05T15:10:18.214Z,22.31
2023-01-05T15:12:44.580Z,22.32
2023-01-05T15:15:10.980Z,22.29
2023-01-05T15:17:37.414Z,22.29
2023-01-05T15:20:05.483Z,22.29
2023-01-05T15:22:38.858Z,22.28
2023-01-05T15:25:05.496Z,22.28
2023-01-05T15:27:31.933Z,22.35
2023-01-05T15:29:58.318Z,22.29
2023-01-05T15:32:24.686Z,22.30
2023-01-05T15:34:51.121Z,22.24
2023-01-05T15:37:17.552Z,22.31
2023-01-05T15:39:44.023Z,22.23
2023-01-05T15:42:10.419Z,22.25
2023-01-05T15:44:37.025Z,22.22
2023-01-05T15:47:03.449Z,22.32
2023-01-05T15:49:29.825Z,22.28
2023-01-05T15:51:56.216Z,22.28
2023-01-05T15:54:22.612Z,22.44
2023-01-05T15:56:48.994Z,22.49
2023-01-05T15:59:15.400Z,22.42
2023-01-05T16:01:41.789Z,22.36
2023-01-05T16:04:09.183Z,22.30
2023-01-05T16:06:35.920Z,22.33
2023-01-05T16:09:02.328Z,22.30
2023-01-05T16:11:28.863Z,22.28
2023-01-05T16:13:55.257Z,22.27
2023-01-05T16:16:49.541Z,22.33
2023-01-05T16:19:08.149Z,22.34
2023-01-05T16:21:34.595Z,22.39
2023-01-05T16:24:01.028Z,22.33
2023-01-05T16:26:27.408Z,22.32
2023-01-05T16:28:53.793Z,22.26
2023-01-05T16:31:20.213Z,22.29
2023-01-05T16:33:46.815Z,22.27
2023-01-05T16:36:13.301Z,22.28
2023-01-05T16:38:39.727Z,22.34
2023-01-05T16:41:06.257Z,22.33
2023-01-05T16:43:32.642Z,22.39
2023-01-05T16:45:59.030Z,22.47
2023-01-05T16:48:25.505Z,22.39
2023-01-05T16:50:52.000Z,22.37
2023-01-05T16:53:18.373Z,22.33
2023-01-05T16:55:44.874Z,22.32
2023-01-05T16:58:11.247Z,22.30
2023-01-05T17:00:37.595Z,22.35
2023-01-05T17:03:04.001Z,22.29
2023-01-05T17:05:30.487Z,22.33
2023-01-05T17:07:56.836Z,22.32
2023-01-05T17:10:23.202Z,22.27
2023-01-05T17:12:49.591Z,22.26
2023-01-05T17:15:15.947Z,22.32
2023-01-05T17:17:42.308Z,22.35
2023-01-05T17:20:08.695Z,22.32
2023-01-05T17:22:35.218Z,22.29
2023-01-05T17:25:01.551Z,22.38
2023-01-05T17:27:27.936Z,22.33
2023-01-05T17:32:25.669Z,22.33
2023-01-05T17:34:52.035Z,22.41
2023-01-05T17:37:18.424Z,22.36
2023-01-05T17:39:44.817Z,22.40
2023-01-05T17:42:11.204Z,22.40
2023-01-05T17:44:37.594Z,22.44
2023-01-05T17:47:03.951Z,22.44
2023-01-05T17:49:30.345Z,22.35
2023-01-05T17:51:56.716Z,22.37
2023-01-05T17:54:23.093Z,22.34
2023-01-05T17:56:49.587Z,22.41
2023-01-05T17:59:15.963Z,22.40
2023-01-05T18:01:42.354Z,22.38
2023-01-05T18:04:08.751Z,22.40
2023-01-05T18:06:35.117Z,22.44
2023-01-05T18:09:01.499Z,22.36
2023-01-05T18:11:27.874Z,22.43
2023-01-05T18:13:54.236Z,22.44
2023-01-05T18:16:20.589Z,22.43
2023-01-05T18:18:46.951Z,22.47
2023-01-05T18:21:13.367Z,22.52
2023-01-05T18:23:39.854Z,22.56
2023-01-05T18:26:06.243Z,22.59
2023-01-05T18:28:32.645Z,22.61
2023-01-05T18:30:59.027Z,22.56
2023-01-05T18:33:25.468Z,22.61
2023-01-05T18:38:21.364Z,22.60
2023-01-05T18:40:47.731Z,22.56
2023-01-05T18:43:14.127Z,22.53
2023-01-05T18:45:40.620Z,22.53
2023-01-05T18:48:07.006Z,22.58
2023-01-05T18:50:33.385Z,22.42
2023-01-05T18:52:59.757Z,22.40
2023-01-05T18:55:26.161Z,22.55
2023-01-05T18:57:52.584Z,22.66
2023-01-05T19:00:18.942Z,22.70
2023-01-05T19:02:45.347Z,22.73
2023-01-05T19:05:11.720Z,22.70
2023-01-05T19:07:38.129Z,22.72
2023-01-05T19:10:04.480Z,22.66
2023-01-05T19:12:30.857Z,22.70
2023-01-05T19:14:57.363Z,22.73
2023-01-05T19:17:23.740Z,22.70
2023-01-05T19:19:50.103Z,22.72
2023-01-05T19:22:16.554Z,22.64
2023-01-05T19:24:42.928Z,22.68
2023-01-05T19:27:09.430Z,22.69
2023-01-05T19:29:35.820Z,22.65
2023-01-05T19:32:02.187Z,22.68
2023-01-05T19:34:28.575Z,22.68
2023-01-05T19:36:54.956Z,22.71
2023-01-05T19:39:21.378Z,22.69
2023-01-05T19:41:47.754Z,22.63
2023-01-05T19:44:14.157Z,22.65
2023-01-05T19:46:40.574Z,22.66
2023-01-05T19:49:06.973Z,22.70
2023-01-05T19:51:33.453Z,22.67
2023-01-05T19:53:59.810Z,22.71
2023-01-05T19:56:26.177Z,22.67
2023-01-05T19:58:52.541Z,22.65
2023-01-05T20:01:18.956Z,22.71
2023-01-05T20:03:45.481Z,22.63
2023-01-05T20:06:11.887Z,22.62
2023-01-05T20:08:38.329Z,22.59
2023-01-05T20:11:04.795Z,22.60
2023-01-05T20:13:31.194Z,22.66
2023-01-05T20:15:57.573Z,22.56
2023-01-05T20:18:23.950Z,22.67
2023-01-05T20:20:50.352Z,22.62
2023-01-05T20:23:16.712Z,22.62
2023-01-05T20:25:43.093Z,22.59
2023-01-05T20:28:09.487Z,22.65
2023-01-05T20:30:35.871Z,22.66
2023-01-05T20:33:02.247Z,22.70
2023-01-05T20:35:28.637Z,22.68
2023-01-05T20:37:55.015Z,22.61
2023-01-05T20:40:21.468Z,22.59
2023-01-05T20:42:47.868Z,22.69
2023-01-05T20:45:15.869Z,22.68
2023-01-05T20:47:47.451Z,22.64
2023-01-05T20:50:14.450Z,22.60
2023-01-05T20:52:40.831Z,22.65
2023-01-05T20:55:07.236Z,22.55
2023-01-05T20:57:33.618Z,22.63
2023-01-05T20:59:59.992Z,22.62
2023-01-05T21:02:26.365Z,22.61
2023-01-05T21:04:52.778Z,22.58
2023-01-05T21:07:19.166Z,22.64
2023-01-05T21:09:45.527Z,22.60
2023-01-05T21:12:11.953Z,22.60
2023-01-05T21:14:38.354Z,22.55
2023-01-05T21:17:04.717Z,22.58
2023-01-05T21:19:31.070Z,22.60
2023-01-05T21:21:57.448Z,22.56
2023-01-05T21:24:23.803Z,22.55
2023-01-05T21:26:50.176Z,22.53
2023-01-05T21:29:16.548Z,22.54
2023-01-05T21:31:42.997Z,22.57
2023-01-05T21:34:09.388Z,22.59
2023-01-05T21:36:35.761Z,22.54
2023-01-05T21:39:03.850Z,22.54
2023-01-05T21:41:30.364Z,22.53
2023-01-05T21:43:56.725Z,22.53
2023-01-05T21:46:23.088Z,22.54
2023-01-05T21:48:49.462Z,22.57
2023-01-05T21:51:15.847Z,22.40
2023-01-05T21:53:42.227Z,22.32
2023-01-05T21:56:08.634Z,22.43
2023-01-05T21:58:35.135Z,22.40
2023-01-05T22:01:01.528Z,22.36
2023-01-05T22:03:29.531Z,22.31
2023-01-05T22:05:56.021Z,22.30
2023-01-05T22:08:22.409Z,22.27
2023-01-05T22:10:48.801Z,22.14
2023-01-05T22:13:15.165Z,22.13
2023-01-05T22:15:41.639Z,22.08
2023-01-05T22:18:08.011Z,22.12
2023-01-05T22:20:34.571Z,22.10
2023-01-05T22:23:00.981Z,22.10
2023-01-05T22:25:27.377Z,22.07
2023-01-05T22:27:53.743Z,22.08
2023-01-05T22:30:20.100Z,21.99
2023-01-05T22:32:46.450Z,22.07
2023-01-05T22:35:12.817Z,22.05
2023-01-05T22:37:39.198Z,22.06
2023-01-05T22:40:05.588Z,22.03
2023-01-05T22:42:31.954Z,22.02
2023-01-05T22:44:58.441Z,21.96
2023-01-05T22:47:24.836Z,21.94
2023-01-05T22:49:51.226Z,21.90
2023-01-05T22:52:17.581Z,21.89
2023-01-05T22:54:43.952Z,21.91
2023-01-05T22:57:10.309Z,21.98
2023-01-05T22:59:36.685Z,21.99
2023-01-05T23:02:03.103Z,22.06
2023-01-05T23:04:29.507Z,22.04
2023-01-05T23:06:55.875Z,22.06
2023-01-05T23:09:22.294Z,21.98
2023-01-05T23:11:48.690Z,21.97
2023-01-05T23:14:15.065Z,21.97
2023-01-05T23:16:41.502Z,22.02
2023-01-05T23:19:08.029Z,21.98
2023-01-05T23:21:34.392Z,22.11
2023-01-05T23:24:00.744Z,22.00
2023-01-05T23:26:27.170Z,22.00
2023-01-05T23:28:53.586Z,22.05
2023-01-05T23:31:19.947Z,22.01
2023-01-05T23:33:46.326Z,21.95
2023-01-05T23:36:12.720Z,21.93
2023-01-05T23:38:39.090Z,21.93
2023-01-05T23:41:05.444Z,21.90
2023-01-05T23:43:31.823Z,21.91
2023-01-05T23:45:58.295Z,21.87
2023-01-05T23:48:24.672Z,21.91
2023-01-05T23:50:51.071Z,21.86
2023-01-05T23:53:17.424Z,21.85
2023-01-05T23:55:43.927Z,21.88
2023-01-05T23:58:10.324Z,21.86
